createdAt,value
2018-06-30T00:01:32.548Z,18.77
2018-06-30T00:04:00.827Z,20.87
2018-06-30T00:06:29.115Z,18.33
2018-06-30T00:08:57.615Z,19.60
2018-06-30T00:11:25.988Z,19.73
2018-06-30T00:13:54.792Z,18.40
2018-06-30T00:16:23.088Z,17.93
2018-06-30T00:18:51.356Z,18.07
2018-06-30T00:21:19.663Z,17.93
2018-06-30T00:23:47.940Z,18.00
2018-06-30T00:26:16.211Z,17.57
2018-06-30T00:28:44.470Z,17.97
2018-06-30T00:31:12.752Z,17.80
2018-06-30T00:33:44.008Z,17.67
2018-06-30T00:36:12.289Z,16.80
2018-06-30T00:38:40.545Z,17.47
2018-06-30T00:41:08.793Z,17.47
2018-06-30T00:43:37.064Z,17.60
2018-06-30T00:46:05.312Z,17.90
2018-06-30T00:48:33.641Z,18.20
2018-06-30T00:51:01.856Z,17.03
2018-06-30T00:53:30.136Z,17.37
2018-06-30T00:55:58.401Z,16.97
2018-06-30T00:58:26.672Z,16.80
2018-06-30T01:00:54.948Z,17.67
2018-06-30T01:03:23.211Z,17.70
2018-06-30T01:05:51.470Z,17.63
2018-06-30T01:08:19.736Z,17.13
2018-06-30T01:10:47.997Z,15.80
2018-06-30T01:13:16.258Z,15.83
2018-06-30T01:15:44.524Z,15.90
2018-06-30T01:18:12.791Z,16.80
2018-06-30T01:20:41.061Z,17.50
2018-06-30T01:23:09.350Z,17.63
2018-06-30T01:25:37.604Z,18.70
2018-06-30T01:28:06.116Z,16.97
2018-06-30T01:30:34.392Z,16.97
2018-06-30T01:33:02.669Z,17.13
2018-06-30T01:35:30.943Z,17.20
2018-06-30T01:37:59.205Z,17.83
2018-06-30T01:40:27.494Z,17.23
2018-06-30T01:42:55.749Z,18.20
2018-06-30T01:45:24.016Z,17.80
2018-06-30T01:47:52.289Z,17.37
2018-06-30T01:50:20.552Z,15.90
2018-06-30T01:52:48.810Z,17.20
2018-06-30T01:55:17.068Z,18.73
2018-06-30T01:57:45.326Z,16.33
2018-06-30T02:00:13.593Z,16.33
2018-06-30T02:02:41.869Z,16.80
2018-06-30T02:05:10.145Z,16.50
2018-06-30T02:07:38.436Z,13.27
2018-06-30T02:10:06.680Z,11.93
2018-06-30T02:12:34.974Z,13.77
2018-06-30T02:15:03.289Z,13.77
2018-06-30T02:17:31.598Z,14.13
2018-06-30T02:19:59.845Z,14.33
2018-06-30T02:22:28.104Z,13.73
2018-06-30T02:24:56.382Z,13.90
2018-06-30T02:27:24.635Z,14.10
2018-06-30T02:29:52.901Z,14.07
2018-06-30T02:32:21.177Z,14.50
2018-06-30T02:34:49.411Z,13.90
2018-06-30T02:37:17.716Z,13.37
2018-06-30T02:39:45.981Z,14.70
2018-06-30T02:42:14.262Z,14.20
2018-06-30T02:44:42.549Z,14.70
2018-06-30T02:47:10.832Z,13.27
2018-06-30T02:49:39.173Z,14.33
2018-06-30T02:52:07.434Z,15.27
2018-06-30T02:54:35.717Z,15.67
2018-06-30T02:57:03.976Z,15.10
2018-06-30T02:59:32.254Z,13.27
2018-06-30T03:02:00.504Z,13.83
2018-06-30T03:04:28.777Z,14.33
2018-06-30T03:06:57.061Z,14.90
2018-06-30T03:09:25.317Z,14.27
2018-06-30T03:11:53.579Z,13.80
2018-06-30T03:14:21.829Z,12.90
2018-06-30T03:16:50.133Z,13.67
2018-06-30T03:19:18.384Z,12.37
2018-06-30T03:21:46.657Z,14.00
2018-06-30T03:24:14.963Z,11.80
2018-06-30T03:26:43.252Z,13.23
2018-06-30T03:29:11.513Z,12.70
2018-06-30T03:31:39.948Z,13.37
2018-06-30T03:34:08.043Z,12.57
2018-06-30T03:36:36.300Z,13.00
2018-06-30T03:39:06.912Z,12.90
2018-06-30T03:41:35.197Z,13.90
2018-06-30T03:44:03.568Z,12.33
2018-06-30T03:46:31.858Z,12.27
2018-06-30T03:49:00.123Z,12.60
2018-06-30T03:51:28.410Z,11.77
2018-06-30T03:53:56.795Z,12.03
2018-06-30T03:56:25.240Z,11.93
2018-06-30T03:58:53.612Z,12.00
2018-06-30T04:01:21.881Z,10.70
2018-06-30T04:03:50.158Z,10.60
2018-06-30T04:06:18.423Z,10.57
2018-06-30T04:08:46.676Z,10.00
2018-06-30T04:11:14.959Z,10.70
2018-06-30T04:13:43.224Z,9.43
2018-06-30T04:16:11.480Z,10.50
2018-06-30T04:18:39.751Z,10.20
2018-06-30T04:21:08.022Z,10.70
2018-06-30T04:23:36.286Z,10.33
2018-06-30T04:26:04.576Z,10.87
2018-06-30T04:28:32.835Z,9.97
2018-06-30T04:31:01.102Z,10.57
2018-06-30T04:33:29.369Z,10.50
2018-06-30T04:35:57.629Z,9.77
2018-06-30T04:38:25.881Z,9.47
2018-06-30T04:40:54.140Z,9.33
2018-06-30T04:43:22.397Z,10.10
2018-06-30T04:45:50.660Z,8.80
2018-06-30T04:48:18.927Z,9.03
2018-06-30T04:50:47.193Z,9.27
2018-06-30T04:53:15.464Z,9.47
2018-06-30T04:55:43.738Z,9.23
2018-06-30T04:58:12.010Z,9.23
2018-06-30T05:00:40.277Z,8.73
2018-06-30T05:03:08.549Z,8.87
2018-06-30T05:05:36.809Z,8.60
2018-06-30T05:08:05.084Z,9.03
2018-06-30T05:10:33.353Z,9.83
2018-06-30T05:13:01.618Z,8.37
2018-06-30T05:15:29.910Z,8.47
2018-06-30T05:17:58.172Z,8.17
2018-06-30T05:20:26.463Z,7.83
2018-06-30T05:22:54.746Z,7.50
2018-06-30T05:25:23.025Z,7.70
2018-06-30T05:27:51.272Z,7.40
2018-06-30T05:30:19.552Z,7.20
2018-06-30T05:32:48.104Z,6.70
2018-06-30T05:35:16.364Z,7.10
2018-06-30T05:37:44.616Z,6.63
2018-06-30T05:40:12.906Z,7.73
2018-06-30T05:42:41.202Z,6.97
2018-06-30T05:45:09.466Z,7.03
2018-06-30T05:47:37.732Z,7.63
2018-06-30T05:50:06.001Z,7.57
2018-06-30T05:52:34.268Z,7.30
2018-06-30T05:55:02.526Z,7.10
2018-06-30T05:57:30.792Z,6.60
2018-06-30T05:59:59.053Z,6.97
2018-06-30T06:02:27.372Z,6.80
2018-06-30T06:04:55.648Z,6.67
2018-06-30T06:07:23.914Z,6.80
2018-06-30T06:09:52.196Z,6.60
2018-06-30T06:12:20.433Z,6.67
2018-06-30T06:14:48.689Z,6.40
2018-06-30T06:17:16.952Z,6.53
2018-06-30T06:19:45.684Z,6.13
2018-06-30T06:22:13.952Z,6.20
2018-06-30T06:24:42.199Z,6.27
2018-06-30T06:27:10.471Z,6.90
2018-06-30T06:29:38.733Z,6.50
2018-06-30T06:32:07.002Z,6.60
2018-06-30T06:34:35.295Z,6.07
2018-06-30T06:37:03.589Z,6.10
2018-06-30T06:39:31.939Z,5.83
2018-06-30T06:42:00.194Z,6.87
2018-06-30T06:44:28.448Z,6.80
2018-06-30T06:46:56.711Z,6.90
2018-06-30T06:49:24.966Z,7.00
2018-06-30T06:51:53.417Z,6.57
2018-06-30T06:54:21.662Z,6.20
2018-06-30T06:56:49.964Z,7.03
2018-06-30T06:59:18.225Z,7.23
2018-06-30T07:01:46.481Z,7.40
2018-06-30T07:04:14.721Z,7.90
2018-06-30T07:06:42.984Z,7.70
2018-06-30T07:09:12.099Z,8.00
2018-06-30T07:11:40.782Z,9.10
2018-06-30T07:14:09.986Z,9.43
2018-06-30T07:16:38.452Z,9.27
2018-06-30T07:19:06.705Z,9.03
2018-06-30T07:21:34.948Z,9.63
2018-06-30T07:24:03.249Z,9.67
2018-06-30T07:26:31.701Z,9.60
2018-06-30T07:28:59.773Z,10.00
2018-06-30T07:31:28.020Z,9.87
2018-06-30T07:33:56.284Z,10.30
2018-06-30T07:36:24.569Z,10.60
2018-06-30T07:38:52.889Z,10.90
2018-06-30T07:41:21.315Z,9.23
2018-06-30T07:43:49.421Z,10.17
2018-06-30T07:46:17.676Z,10.93
2018-06-30T07:48:45.936Z,11.63
2018-06-30T07:51:14.190Z,9.63
2018-06-30T07:53:42.455Z,10.03
2018-06-30T07:56:10.923Z,9.97
2018-06-30T07:58:38.989Z,9.90
2018-06-30T08:01:07.304Z,10.83
2018-06-30T08:03:35.600Z,10.80
2018-06-30T08:06:03.876Z,11.07
2018-06-30T08:08:32.134Z,11.27
2018-06-30T08:11:00.392Z,11.83
2018-06-30T08:13:28.652Z,10.17
2018-06-30T08:15:56.906Z,10.57
2018-06-30T08:18:25.162Z,11.73
2018-06-30T08:20:53.425Z,12.13
2018-06-30T08:23:21.944Z,10.80
2018-06-30T08:25:50.214Z,10.80
2018-06-30T08:28:18.529Z,10.63
2018-06-30T08:30:46.796Z,10.53
2018-06-30T08:33:15.065Z,11.07
2018-06-30T08:35:43.332Z,10.90
2018-06-30T08:38:11.600Z,12.70
2018-06-30T08:40:39.898Z,11.10
2018-06-30T08:43:08.158Z,10.67
2018-06-30T08:45:36.428Z,10.50
2018-06-30T08:48:05.212Z,11.67
2018-06-30T08:50:33.495Z,9.70
2018-06-30T08:53:01.771Z,10.63
2018-06-30T08:55:30.065Z,10.50
2018-06-30T08:57:58.321Z,11.80
2018-06-30T09:00:26.566Z,13.47
2018-06-30T09:02:54.832Z,11.73
2018-06-30T09:05:23.091Z,13.60
2018-06-30T09:07:51.368Z,12.20
2018-06-30T09:10:19.632Z,12.77
2018-06-30T09:12:47.883Z,12.77
2018-06-30T09:15:16.157Z,10.67
2018-06-30T09:17:44.412Z,12.37
2018-06-30T09:20:12.750Z,15.37
2018-06-30T09:22:40.952Z,14.40
2018-06-30T09:25:09.228Z,13.17
2018-06-30T09:27:37.475Z,12.63
2018-06-30T09:30:06.976Z,13.97
2018-06-30T09:32:35.249Z,12.20
2018-06-30T09:35:03.636Z,9.93
2018-06-30T09:37:31.888Z,9.63
2018-06-30T09:40:00.145Z,9.17
2018-06-30T09:42:28.403Z,9.10
2018-06-30T09:44:56.693Z,8.60
2018-06-30T09:47:24.969Z,8.03
2018-06-30T09:49:53.233Z,7.93
2018-06-30T09:52:21.517Z,7.47
2018-06-30T09:54:49.836Z,5.80
2018-06-30T09:57:18.102Z,6.23
2018-06-30T09:59:46.349Z,6.73
2018-06-30T10:02:14.632Z,6.47
2018-06-30T10:04:42.907Z,7.13
2018-06-30T10:07:11.207Z,7.10
2018-06-30T10:09:39.477Z,6.80
2018-06-30T10:12:07.812Z,6.00
2018-06-30T10:14:36.069Z,5.33
2018-06-30T10:17:04.350Z,5.10
2018-06-30T10:19:32.690Z,5.60
2018-06-30T10:22:00.860Z,6.07
2018-06-30T10:24:29.116Z,5.73
2018-06-30T10:26:57.376Z,6.13
2018-06-30T10:29:25.622Z,5.93
2018-06-30T10:31:53.905Z,5.70
2018-06-30T10:34:22.167Z,5.70
2018-06-30T10:36:50.427Z,5.07
2018-06-30T10:39:18.712Z,5.20
2018-06-30T10:41:46.961Z,5.50
2018-06-30T10:44:15.284Z,6.23
2018-06-30T10:46:43.545Z,6.10
2018-06-30T10:49:11.809Z,6.33
2018-06-30T10:51:40.075Z,6.70
2018-06-30T10:54:08.336Z,7.20
2018-06-30T10:56:36.633Z,9.20
2018-06-30T10:59:04.903Z,9.70
2018-06-30T11:01:33.165Z,8.30
2018-06-30T11:04:01.502Z,10.23
2018-06-30T11:06:29.724Z,9.77
2018-06-30T11:08:57.983Z,9.20
2018-06-30T11:11:26.260Z,9.43
2018-06-30T11:13:54.906Z,7.57
2018-06-30T11:16:23.143Z,7.57
2018-06-30T11:18:51.404Z,7.07
2018-06-30T11:21:19.660Z,8.10
2018-06-30T11:23:47.927Z,6.63
2018-06-30T11:26:16.176Z,7.10
2018-06-30T11:28:44.447Z,7.17
2018-06-30T11:31:12.719Z,7.80
2018-06-30T11:33:40.991Z,7.23
2018-06-30T11:36:09.231Z,7.80
2018-06-30T11:38:37.501Z,6.63
2018-06-30T11:41:05.793Z,5.70
2018-06-30T11:43:34.053Z,5.20
2018-06-30T11:46:02.313Z,5.30
2018-06-30T11:48:30.597Z,6.10
2018-06-30T11:50:58.912Z,5.53
2018-06-30T11:53:27.193Z,5.83
2018-06-30T11:55:55.485Z,4.93
2018-06-30T11:58:23.733Z,4.90
2018-06-30T12:00:51.982Z,4.73
2018-06-30T12:03:20.245Z,5.77
2018-06-30T12:05:48.517Z,4.83
2018-06-30T12:08:16.807Z,5.73
2018-06-30T12:10:45.091Z,5.50
2018-06-30T12:13:13.344Z,4.80
2018-06-30T12:15:41.604Z,5.43
2018-06-30T12:18:09.861Z,5.03
2018-06-30T12:20:38.112Z,5.10
2018-06-30T12:23:06.412Z,5.10
2018-06-30T12:25:34.656Z,5.80
2018-06-30T12:28:02.916Z,4.70
2018-06-30T12:30:31.176Z,4.80
2018-06-30T12:32:59.444Z,4.90
2018-06-30T12:35:27.691Z,5.03
2018-06-30T12:37:55.956Z,4.87
2018-06-30T12:40:24.225Z,5.53
2018-06-30T12:42:52.481Z,4.80
2018-06-30T12:45:20.744Z,5.43
2018-06-30T12:47:49.006Z,5.20
2018-06-30T12:50:17.256Z,5.67
2018-06-30T12:52:45.526Z,4.90
2018-06-30T12:55:13.785Z,4.73
2018-06-30T12:57:42.064Z,4.70
2018-06-30T13:00:10.356Z,4.50
2018-06-30T13:02:38.640Z,5.73
2018-06-30T13:05:06.936Z,5.10
2018-06-30T13:07:35.179Z,4.93
2018-06-30T13:10:03.524Z,5.40
2018-06-30T13:12:31.786Z,5.43
2018-06-30T13:15:00.071Z,5.43
2018-06-30T13:17:28.366Z,5.20
2018-06-30T13:19:59.655Z,5.33
2018-06-30T13:22:27.906Z,6.13
2018-06-30T13:24:56.217Z,6.50
2018-06-30T13:27:24.500Z,6.77
2018-06-30T13:29:52.748Z,6.97
2018-06-30T13:32:21.030Z,6.10
2018-06-30T13:34:49.287Z,7.10
2018-06-30T13:37:17.551Z,6.93
2018-06-30T13:39:45.870Z,6.43
2018-06-30T13:42:14.136Z,6.37
2018-06-30T13:44:42.385Z,6.80
2018-06-30T13:47:10.649Z,6.73
2018-06-30T13:49:38.932Z,7.20
2018-06-30T13:52:07.229Z,7.07
2018-06-30T13:54:35.525Z,6.97
2018-06-30T13:57:03.773Z,6.60
2018-06-30T13:59:32.053Z,7.43
2018-06-30T14:02:00.304Z,7.97
2018-06-30T14:04:28.593Z,8.17
2018-06-30T14:06:56.900Z,9.23
2018-06-30T14:09:25.173Z,8.50
2018-06-30T14:11:53.461Z,9.40
2018-06-30T14:14:21.739Z,9.30
2018-06-30T14:16:50.045Z,9.17
2018-06-30T14:19:18.292Z,8.87
2018-06-30T14:21:46.568Z,9.23
2018-06-30T14:24:14.842Z,8.90
2018-06-30T14:26:43.109Z,8.73
2018-06-30T14:29:11.380Z,8.50
2018-06-30T14:31:39.669Z,8.70
2018-06-30T14:34:07.949Z,9.73
2018-06-30T14:36:36.224Z,9.43
2018-06-30T14:39:08.304Z,9.83
2018-06-30T14:41:36.672Z,9.80
2018-06-30T14:44:05.150Z,9.93
2018-06-30T14:46:33.444Z,9.07
2018-06-30T14:49:01.764Z,8.93
2018-06-30T14:51:30.030Z,8.57
2018-06-30T14:53:58.318Z,8.57
2018-06-30T14:56:26.585Z,8.03
2018-06-30T14:58:54.875Z,8.43
2018-06-30T15:01:23.168Z,7.87
2018-06-30T15:03:51.444Z,8.53
2018-06-30T15:06:19.700Z,8.30
2018-06-30T15:08:47.976Z,8.40
2018-06-30T15:11:16.284Z,7.90
2018-06-30T15:13:44.533Z,8.33
2018-06-30T15:16:12.844Z,8.43
2018-06-30T15:18:41.080Z,8.50
2018-06-30T15:21:09.344Z,8.50
2018-06-30T15:23:37.615Z,8.43
2018-06-30T15:26:05.900Z,7.57
2018-06-30T15:28:34.176Z,22.50
2018-06-30T15:31:02.442Z,9.60
2018-06-30T15:33:30.697Z,8.47
2018-06-30T15:35:58.998Z,8.43
2018-06-30T15:38:27.224Z,9.90
2018-06-30T15:40:55.484Z,8.03
2018-06-30T15:43:23.777Z,8.43
2018-06-30T15:45:52.039Z,8.63
2018-06-30T15:48:20.309Z,7.83
2018-06-30T15:50:48.570Z,32.97
2018-06-30T15:53:16.836Z,9.03
2018-06-30T15:55:45.105Z,12.57
2018-06-30T15:58:13.368Z,8.83
2018-06-30T16:00:41.627Z,7.90
2018-06-30T16:03:09.892Z,12.70
2018-06-30T16:05:38.168Z,10.77
2018-06-30T16:08:06.420Z,8.80
2018-06-30T16:10:34.686Z,9.30
2018-06-30T16:13:02.949Z,7.70
2018-06-30T16:15:31.264Z,7.73
2018-06-30T16:17:59.517Z,8.63
2018-06-30T16:20:27.788Z,8.33
2018-06-30T16:22:56.047Z,7.87
2018-06-30T16:25:24.301Z,7.90
2018-06-30T16:27:52.544Z,8.95
2018-06-30T16:30:21.681Z,9.15
2018-06-30T16:32:49.964Z,8.25
2018-06-30T16:35:18.256Z,7.80
2018-06-30T16:37:46.501Z,8.85
2018-06-30T16:40:14.787Z,7.30
2018-06-30T16:42:43.048Z,8.25
2018-06-30T16:45:11.292Z,7.60
2018-06-30T16:47:39.600Z,8.18
2018-06-30T16:50:07.883Z,10.30
2018-06-30T16:52:36.141Z,9.58
2018-06-30T16:55:04.461Z,11.22
2018-06-30T16:57:32.710Z,7.95
2018-06-30T17:00:00.984Z,9.90
2018-06-30T17:02:29.258Z,10.75
2018-06-30T17:04:57.511Z,7.30
2018-06-30T17:07:25.761Z,7.55
2018-06-30T17:09:54.036Z,17.62
2018-06-30T17:12:22.293Z,9.10
2018-06-30T17:14:50.624Z,8.80
2018-06-30T17:17:18.845Z,7.05
2018-06-30T17:19:47.117Z,10.23
2018-06-30T17:22:15.380Z,6.37
2018-06-30T17:24:43.697Z,10.78
2018-06-30T17:27:11.957Z,7.62
2018-06-30T17:29:40.208Z,9.48
2018-06-30T17:32:08.472Z,5.67
2018-06-30T17:34:36.725Z,5.80
2018-06-30T17:37:04.988Z,5.50
2018-06-30T17:39:33.223Z,5.50
2018-06-30T17:42:01.479Z,6.20
2018-06-30T17:44:29.768Z,4.33
2018-06-30T17:46:58.013Z,4.20
2018-06-30T17:49:26.280Z,5.03
2018-06-30T17:51:54.543Z,4.73
2018-06-30T17:54:22.803Z,4.00
2018-06-30T17:56:51.077Z,4.10
2018-06-30T17:59:19.359Z,3.57
2018-06-30T18:01:47.643Z,3.47
2018-06-30T18:04:15.892Z,3.60
2018-06-30T18:06:44.154Z,3.23
2018-06-30T18:09:12.748Z,2.90
2018-06-30T18:11:41.532Z,3.00
2018-06-30T18:14:10.016Z,2.87
2018-06-30T18:19:41.570Z,2.97
2018-06-30T18:22:09.983Z,2.97
2018-06-30T18:24:38.313Z,2.90
2018-06-30T18:27:06.722Z,3.00
2018-06-30T18:29:35.129Z,2.90
2018-06-30T18:32:03.553Z,2.80
2018-06-30T18:34:31.873Z,2.60
2018-06-30T18:37:00.184Z,2.70
2018-06-30T18:39:28.510Z,2.50
2018-06-30T18:41:56.814Z,2.50
2018-06-30T18:44:25.139Z,2.80
2018-06-30T18:46:53.602Z,2.60
2018-06-30T18:49:21.871Z,2.53
2018-06-30T18:51:50.187Z,2.00
2018-06-30T18:54:18.460Z,2.13
2018-06-30T18:56:46.734Z,2.40
2018-06-30T18:59:15.076Z,3.87
2018-06-30T19:01:43.370Z,3.30
2018-06-30T19:04:11.664Z,2.80
2018-06-30T19:06:39.957Z,3.70
2018-06-30T19:09:09.597Z,4.90
2018-06-30T19:11:37.916Z,4.27
2018-06-30T19:14:06.545Z,3.67
2018-06-30T19:16:34.820Z,3.20
2018-06-30T19:19:03.092Z,2.70
2018-06-30T19:21:31.407Z,2.63
2018-06-30T19:23:59.722Z,2.93
2018-06-30T19:26:27.996Z,3.30
2018-06-30T19:28:56.253Z,3.10
2018-06-30T19:31:24.508Z,3.03
2018-06-30T19:33:52.813Z,3.00
2018-06-30T19:36:21.081Z,3.40
2018-06-30T19:38:49.361Z,2.90
2018-06-30T19:41:17.619Z,2.53
2018-06-30T19:43:45.916Z,2.77
2018-06-30T19:46:14.179Z,3.17
2018-06-30T19:48:42.436Z,2.90
2018-06-30T19:51:10.685Z,2.90
2018-06-30T19:53:38.983Z,2.77
2018-06-30T19:56:07.242Z,2.60
2018-06-30T19:58:35.512Z,2.90
2018-06-30T20:01:03.789Z,2.90
2018-06-30T20:03:32.047Z,2.90
2018-06-30T20:06:00.336Z,3.00
2018-06-30T20:08:29.180Z,2.97
2018-06-30T20:10:57.449Z,2.70
2018-06-30T20:13:25.801Z,2.90
2018-06-30T20:15:54.104Z,2.63
2018-06-30T20:18:22.384Z,3.20
2018-06-30T20:20:50.663Z,3.13
2018-06-30T20:23:18.897Z,2.70
2018-06-30T20:25:47.141Z,2.70
2018-06-30T20:28:15.445Z,2.40
2018-06-30T20:30:43.732Z,2.63
2018-06-30T20:33:12.018Z,2.77
2018-06-30T20:35:40.300Z,2.63
2018-06-30T20:38:08.577Z,3.63
2018-06-30T20:40:36.847Z,3.80
2018-06-30T20:43:05.222Z,3.60
2018-06-30T20:45:33.525Z,2.60
2018-06-30T20:48:01.797Z,2.60
2018-06-30T20:50:30.083Z,2.37
2018-06-30T20:52:58.348Z,2.40
2018-06-30T20:55:26.619Z,2.10
2018-06-30T20:57:54.892Z,2.10
2018-06-30T21:00:23.148Z,2.37
2018-06-30T21:02:51.440Z,2.00
2018-06-30T21:05:19.692Z,2.23
2018-06-30T21:07:47.943Z,1.73
2018-06-30T21:10:16.240Z,2.17
2018-06-30T21:12:44.545Z,2.03
2018-06-30T21:15:12.796Z,1.80
2018-06-30T21:17:41.101Z,1.93
2018-06-30T21:20:09.342Z,2.20
2018-06-30T21:22:37.616Z,2.47
2018-06-30T21:25:05.945Z,2.20
2018-06-30T21:27:34.224Z,2.20
2018-06-30T21:30:02.509Z,2.20
2018-06-30T21:32:30.778Z,2.30
2018-06-30T21:34:59.056Z,2.20
2018-06-30T21:37:27.361Z,2.30
2018-06-30T21:39:55.629Z,2.20
2018-06-30T21:42:23.883Z,2.53
2018-06-30T21:44:52.186Z,2.07
2018-06-30T21:47:20.520Z,2.27
2018-06-30T21:49:48.788Z,1.93
2018-06-30T21:52:17.212Z,1.80
2018-06-30T21:54:45.473Z,1.70
2018-06-30T21:57:13.821Z,1.70
2018-06-30T21:59:42.067Z,1.97
2018-06-30T22:02:10.373Z,1.90
2018-06-30T22:04:38.913Z,1.80
2018-06-30T22:07:07.174Z,1.60
2018-06-30T22:09:35.438Z,1.70
2018-06-30T22:12:03.758Z,1.50
2018-06-30T22:14:32.012Z,1.80
2018-06-30T22:17:00.377Z,1.70
2018-06-30T22:19:28.645Z,1.80
2018-06-30T22:24:31.493Z,1.50
2018-06-30T22:26:59.764Z,1.67
2018-06-30T22:29:28.029Z,1.80
2018-06-30T22:31:56.297Z,1.80
2018-06-30T22:34:24.612Z,1.70
2018-06-30T22:36:52.904Z,1.90
2018-06-30T22:39:32.324Z,1.47
2018-06-30T22:42:00.580Z,1.60
2018-06-30T22:44:28.841Z,1.90
2018-06-30T22:46:57.119Z,1.73
2018-06-30T22:49:25.382Z,1.80
2018-06-30T22:51:53.636Z,1.60
2018-06-30T22:54:21.908Z,1.50
2018-06-30T22:56:50.189Z,1.40
2018-06-30T22:59:18.448Z,1.33
2018-06-30T23:01:46.708Z,1.50
2018-06-30T23:04:14.988Z,1.43
2018-06-30T23:06:43.265Z,1.70
2018-06-30T23:09:11.544Z,1.70
2018-06-30T23:11:39.809Z,2.00
2018-06-30T23:14:08.053Z,1.60
2018-06-30T23:16:36.344Z,1.57
2018-06-30T23:19:04.769Z,1.50
2018-06-30T23:21:33.026Z,1.50
2018-06-30T23:24:01.289Z,1.50
2018-06-30T23:26:29.556Z,1.50
2018-06-30T23:28:57.821Z,1.40
2018-06-30T23:31:26.084Z,1.40
2018-06-30T23:33:54.342Z,1.50
2018-06-30T23:36:22.600Z,1.33
2018-06-30T23:38:50.861Z,1.50
2018-06-30T23:41:19.120Z,1.63
2018-06-30T23:43:47.415Z,1.40
2018-06-30T23:46:15.665Z,1.50
2018-06-30T23:48:43.929Z,1.30
2018-06-30T23:51:12.208Z,1.70
2018-06-30T23:53:40.476Z,1.70
2018-06-30T23:56:08.756Z,1.50
2018-06-30T23:58:37.016Z,1.30
